createdAt,value
2019-02-15T00:00:09.405Z,5.30
2019-02-15T00:03:32.568Z,5.10
2019-02-15T00:06:33.446Z,5.10
2019-02-15T00:10:05.793Z,5.00
2019-02-15T00:13:00.616Z,4.90
2019-02-15T00:16:17.243Z,4.90
2019-02-15T00:23:15.977Z,4.90
2019-02-15T00:26:13.162Z,5.10
2019-02-15T00:29:48.875Z,5.30
2019-02-15T00:32:26.324Z,5.70
2019-02-15T00:35:09.269Z,5.60
2019-02-15T00:38:00.372Z,5.60
2019-02-15T00:40:41.086Z,5.60
2019-02-15T00:43:56.865Z,5.60
2019-02-15T00:46:59.488Z,5.60
2019-02-15T00:49:53.795Z,5.40
2019-02-15T00:52:55.388Z,5.20
2019-02-15T00:55:46.034Z,5.00
2019-02-15T00:58:58.668Z,4.90
2019-02-15T01:01:49.249Z,4.80
2019-02-15T01:05:14.966Z,4.80
2019-02-15T01:08:13.798Z,4.60
2019-02-15T01:11:13.566Z,4.70
2019-02-15T01:13:53.295Z,4.60
2019-02-15T01:16:43.907Z,4.50
2019-02-15T01:19:21.194Z,4.50
2019-02-15T01:22:08.053Z,4.50
2019-02-15T01:25:10.137Z,4.50
2019-02-15T01:27:57.738Z,4.40
2019-02-15T01:30:52.769Z,4.40
2019-02-15T01:33:48.480Z,4.40
2019-02-15T01:36:44.758Z,4.40
2019-02-15T01:39:42.162Z,4.40
2019-02-15T01:42:41.405Z,4.40
2019-02-15T01:46:06.799Z,4.40
2019-02-15T01:48:53.223Z,4.30
2019-02-15T01:51:59.352Z,4.20
2019-02-15T01:54:39.768Z,4.20
2019-02-15T01:57:50.247Z,4.30
2019-02-15T02:00:44.315Z,4.30
2019-02-15T02:04:08.330Z,4.20
2019-02-15T02:06:42.257Z,3.90
2019-02-15T02:09:22.528Z,4.20
2019-02-15T02:11:55.040Z,4.20
2019-02-15T02:14:28.137Z,4.30
2019-02-15T02:16:59.613Z,4.40
2019-02-15T02:19:37.257Z,4.50
2019-02-15T02:22:26.761Z,4.50
2019-02-15T02:27:58.079Z,4.30
2019-02-15T02:30:53.398Z,4.30
2019-02-15T02:31:34.602Z,4.40
2019-02-15T02:33:25.227Z,4.30
2019-02-15T02:36:05.897Z,4.20
2019-02-15T02:38:37.008Z,4.10
2019-02-15T02:41:17.438Z,4.40
2019-02-15T02:43:59.514Z,4.10
2019-02-15T02:46:34.271Z,4.10
2019-02-15T02:49:07.244Z,4.10
2019-02-15T02:51:42.957Z,4.10
2019-02-15T02:54:13.845Z,4.10
2019-02-15T02:56:45.275Z,4.10
2019-02-15T02:59:36.718Z,4.10
2019-02-15T03:02:14.115Z,4.10
2019-02-15T03:04:58.185Z,4.10
2019-02-15T03:07:36.780Z,4.00
2019-02-15T03:10:15.158Z,3.90
2019-02-15T03:12:58.580Z,3.90
2019-02-15T03:15:45.424Z,3.90
2019-02-15T03:18:22.494Z,3.90
2019-02-15T03:21:01.002Z,3.80
2019-02-15T03:23:39.861Z,3.90
2019-02-15T03:26:23.855Z,3.80
2019-02-15T03:29:04.170Z,3.80
2019-02-15T03:31:38.437Z,3.90
2019-02-15T03:34:10.565Z,3.90
2019-02-15T03:36:58.568Z,3.80
2019-02-15T03:39:45.882Z,3.80
2019-02-15T03:42:26.215Z,3.90
2019-02-15T03:44:59.190Z,3.90
2019-02-15T03:47:40.723Z,3.80
2019-02-15T03:50:16.770Z,3.80
2019-02-15T03:52:55.917Z,3.90
2019-02-15T03:55:35.708Z,4.00
2019-02-15T03:58:18.151Z,4.00
2019-02-15T04:00:53.778Z,3.90
2019-02-15T04:03:25.220Z,3.90
2019-02-15T04:06:02.147Z,3.90
2019-02-15T04:08:38.253Z,3.80
2019-02-15T04:11:17.636Z,3.80
2019-02-15T04:14:06.646Z,3.80
2019-02-15T04:16:49.672Z,3.70
2019-02-15T04:19:34.116Z,3.70
2019-02-15T04:22:08.334Z,3.60
2019-02-15T04:24:41.023Z,3.50
2019-02-15T04:27:19.233Z,3.50
2019-02-15T04:29:58.313Z,3.50
2019-02-15T04:32:39.486Z,3.50
2019-02-15T04:35:19.356Z,3.60
2019-02-15T04:38:02.972Z,3.50
2019-02-15T04:40:39.899Z,3.50
2019-02-15T04:43:16.716Z,3.40
2019-02-15T04:46:22.944Z,3.40
2019-02-15T04:49:08.167Z,3.30
2019-02-15T04:51:53.946Z,3.50
2019-02-15T04:54:36.492Z,3.30
2019-02-15T04:57:16.153Z,3.30
2019-02-15T04:59:48.667Z,3.50
2019-02-15T05:02:24.271Z,3.50
2019-02-15T05:05:02.417Z,3.50
2019-02-15T05:07:41.091Z,3.50
2019-02-15T05:10:15.703Z,3.40
2019-02-15T05:12:49.810Z,3.50
2019-02-15T05:15:54.749Z,3.40
2019-02-15T05:18:49.939Z,3.30
2019-02-15T05:21:39.201Z,3.30
2019-02-15T05:24:25.484Z,3.20
2019-02-15T05:27:05.028Z,3.30
2019-02-15T05:29:49.348Z,3.30
2019-02-15T05:32:22.900Z,3.20
2019-02-15T05:35:09.865Z,3.20
2019-02-15T05:38:01.345Z,3.40
2019-02-15T05:41:17.403Z,3.30
2019-02-15T05:43:59.604Z,3.30
2019-02-15T05:47:08.882Z,3.10
2019-02-15T05:50:06.882Z,3.10
2019-02-15T05:53:00.123Z,3.10
2019-02-15T05:56:09.555Z,3.10
2019-02-15T05:59:37.529Z,3.20
2019-02-15T06:02:40.148Z,3.20
2019-02-15T06:05:31.003Z,3.10
2019-02-15T06:08:11.903Z,3.20
2019-02-15T06:11:06.748Z,3.10
2019-02-15T06:13:33.910Z,3.00
2019-02-15T06:16:24.971Z,3.10
2019-02-15T06:19:38.077Z,3.10
2019-02-15T06:22:27.992Z,3.40
2019-02-15T06:25:06.057Z,3.20
2019-02-15T06:27:44.184Z,3.20
2019-02-15T06:30:24.138Z,3.20
2019-02-15T06:33:06.944Z,3.30
2019-02-15T06:36:01.200Z,3.30
2019-02-15T06:38:38.086Z,3.40
2019-02-15T06:41:47.674Z,3.20
2019-02-15T06:44:21.421Z,3.20
2019-02-15T06:47:22.055Z,3.20
2019-02-15T06:50:21.550Z,3.20
2019-02-15T06:53:29.940Z,3.20
2019-02-15T06:56:26.039Z,3.20
2019-02-15T06:59:36.022Z,3.20
2019-02-15T07:02:30.019Z,3.20
2019-02-15T07:05:20.146Z,3.20
2019-02-15T07:07:58.581Z,3.30
2019-02-15T07:10:32.000Z,3.40
2019-02-15T07:13:13.956Z,3.40
2019-02-15T07:15:46.122Z,3.40
2019-02-15T07:18:21.373Z,3.40
2019-02-15T07:20:59.667Z,3.40
2019-02-15T07:23:43.479Z,3.50
2019-02-15T07:26:25.812Z,3.50
2019-02-15T07:29:03.968Z,3.60
2019-02-15T07:31:41.785Z,3.70
2019-02-15T07:34:17.251Z,3.60
2019-02-15T07:37:07.371Z,3.60
2019-02-15T07:39:45.513Z,3.70
2019-02-15T07:42:18.855Z,3.80
2019-02-15T07:45:19.365Z,3.90
2019-02-15T07:48:01.069Z,3.90
2019-02-15T07:50:39.669Z,3.90
2019-02-15T07:53:17.754Z,4.00
2019-02-15T07:56:12.648Z,4.10
2019-02-15T07:58:57.231Z,4.20
2019-02-15T08:02:01.636Z,4.30
2019-02-15T08:04:33.306Z,4.40
2019-02-15T08:07:30.110Z,4.50
2019-02-15T08:10:05.174Z,4.60
2019-02-15T08:12:42.293Z,4.70
2019-02-15T08:15:21.450Z,4.80
2019-02-15T08:18:15.202Z,5.00
2019-02-15T08:20:50.959Z,5.20
2019-02-15T08:23:35.647Z,6.40
2019-02-15T08:26:16.673Z,8.10
2019-02-15T08:28:57.475Z,9.90
2019-02-15T08:31:47.052Z,11.20
2019-02-15T08:34:23.183Z,12.20
2019-02-15T08:37:32.630Z,13.10
2019-02-15T08:40:32.877Z,13.40
2019-02-15T08:43:32.369Z,14.10
2019-02-15T08:46:29.745Z,14.80
2019-02-15T08:49:06.085Z,15.20
2019-02-15T08:51:49.771Z,15.70
2019-02-15T08:54:25.747Z,16.00
2019-02-15T08:57:15.071Z,16.20
2019-02-15T09:00:00.643Z,16.80
2019-02-15T09:02:42.863Z,17.20
2019-02-15T09:05:30.433Z,17.30
2019-02-15T09:08:14.400Z,17.40
2019-02-15T09:11:06.220Z,18.00
2019-02-15T09:14:06.555Z,18.30
2019-02-15T09:16:48.597Z,18.40
2019-02-15T09:19:54.867Z,18.40
2019-02-15T09:22:46.783Z,18.10
2019-02-15T09:25:32.449Z,18.50
2019-02-15T09:28:36.291Z,18.30
2019-02-15T09:31:18.020Z,18.50
2019-02-15T09:34:07.785Z,18.50
2019-02-15T09:36:52.742Z,18.40
2019-02-15T09:39:39.508Z,18.60
2019-02-15T09:42:45.484Z,18.50
2019-02-15T09:45:43.832Z,18.30
2019-02-15T09:48:29.816Z,17.70
2019-02-15T09:51:50.858Z,17.60
2019-02-15T09:54:55.986Z,17.70
2019-02-15T09:57:36.389Z,17.60
2019-02-15T10:00:40.712Z,17.20
2019-02-15T10:03:36.004Z,17.00
2019-02-15T10:06:31.939Z,16.60
2019-02-15T10:09:38.346Z,16.20
2019-02-15T10:12:52.100Z,16.10
2019-02-15T10:15:30.440Z,15.80
2019-02-15T10:18:09.594Z,15.90
2019-02-15T10:20:47.548Z,15.70
2019-02-15T10:23:31.872Z,15.90
2019-02-15T10:26:53.032Z,15.90
2019-02-15T10:29:36.637Z,15.80
2019-02-15T10:32:52.001Z,15.70
2019-02-15T10:35:50.230Z,15.70
2019-02-15T10:38:30.385Z,15.60
2019-02-15T10:44:32.336Z,15.60
2019-02-15T10:47:30.446Z,16.10
2019-02-15T10:53:19.393Z,16.70
2019-02-15T10:55:57.106Z,16.70
2019-02-15T10:58:42.794Z,16.60
2019-02-15T11:01:26.084Z,16.70
2019-02-15T11:04:13.807Z,16.90
2019-02-15T11:07:16.205Z,16.80
2019-02-15T11:10:06.867Z,17.00
2019-02-15T11:12:40.425Z,17.00
2019-02-15T11:15:35.634Z,17.20
2019-02-15T11:18:14.001Z,17.10
2019-02-15T11:20:59.446Z,17.10
2019-02-15T11:23:34.213Z,17.20
2019-02-15T11:26:24.959Z,17.20
2019-02-15T11:29:23.340Z,17.20
2019-02-15T11:32:09.415Z,17.30
2019-02-15T11:35:10.664Z,17.40
2019-02-15T11:38:13.246Z,17.50
2019-02-15T11:41:11.002Z,17.60
2019-02-15T11:43:48.274Z,17.60
2019-02-15T11:46:36.449Z,17.70
2019-02-15T11:49:43.662Z,17.80
2019-02-15T11:52:21.312Z,18.00
2019-02-15T11:55:52.084Z,18.20
2019-02-15T11:59:01.575Z,18.20
2019-02-15T12:02:06.243Z,18.00
2019-02-15T12:05:06.456Z,18.00
2019-02-15T12:08:14.062Z,18.00
2019-02-15T12:11:10.979Z,18.00
2019-02-15T12:17:18.334Z,18.00
2019-02-15T12:20:03.783Z,18.10
2019-02-15T12:23:28.679Z,18.00
2019-02-15T12:30:15.223Z,18.30
2019-02-15T12:33:12.505Z,18.30
2019-02-15T12:36:13.887Z,18.50
2019-02-15T12:39:43.258Z,18.40
2019-02-15T12:42:46.256Z,18.30
2019-02-15T12:45:54.402Z,18.20
2019-02-15T12:49:09.397Z,18.20
2019-02-15T12:52:11.775Z,18.40
2019-02-15T12:55:08.796Z,18.40
2019-02-15T12:58:19.090Z,18.40
2019-02-15T13:01:17.608Z,18.30
2019-02-15T13:04:54.799Z,18.20
2019-02-15T13:07:57.777Z,18.00
2019-02-15T13:11:54.209Z,18.00
2019-02-15T13:15:09.529Z,18.20
2019-02-15T13:18:43.383Z,18.10
2019-02-15T13:22:29.823Z,18.20
2019-02-15T13:29:18.098Z,18.20
2019-02-15T13:32:48.125Z,18.30
2019-02-15T13:39:57.014Z,18.30
2019-02-15T13:53:10.036Z,18.10
2019-02-15T13:56:29.777Z,18.10
2019-02-15T14:00:12.303Z,18.10
2019-02-15T14:03:22.163Z,18.00
2019-02-15T14:13:19.174Z,17.90
2019-02-15T14:31:11.434Z,17.80
2019-02-15T14:42:25.584Z,17.50
2019-02-15T14:56:36.159Z,17.30
2019-02-15T14:59:33.976Z,17.20
2019-02-15T18:17:48.314Z,13.70
2019-02-15T18:20:45.743Z,13.50
2019-02-15T18:38:00.582Z,13.30
2019-02-15T18:40:50.618Z,13.20
2019-02-15T18:44:09.403Z,13.10
2019-02-15T18:47:07.127Z,13.10
2019-02-15T18:50:04.095Z,13.20
2019-02-15T18:53:21.666Z,13.20
2019-02-15T18:56:39.670Z,13.10
2019-02-15T19:10:31.556Z,13.00
2019-02-15T19:14:17.129Z,13.00
2019-02-15T19:17:00.462Z,12.70
2019-02-15T19:20:18.597Z,13.10
2019-02-15T19:43:48.241Z,13.80
2019-02-15T19:46:39.820Z,13.50
2019-02-15T19:58:47.142Z,13.10
2019-02-15T20:10:15.493Z,12.90
2019-02-15T20:18:13.306Z,12.80
2019-02-15T20:22:31.231Z,12.80
2019-02-15T20:42:08.644Z,13.40
2019-02-15T20:57:00.985Z,12.50
2019-02-15T21:00:40.028Z,12.40
2019-02-15T21:04:24.702Z,12.40
2019-02-15T21:07:19.573Z,12.30
2019-02-15T21:15:16.554Z,12.30
2019-02-15T21:18:26.249Z,12.20
2019-02-15T21:21:47.890Z,12.20
2019-02-15T21:28:49.491Z,12.10
2019-02-15T21:35:20.853Z,11.90
2019-02-15T21:41:49.711Z,11.80
2019-02-15T21:44:58.166Z,11.80
2019-02-15T21:51:48.352Z,11.70
2019-02-15T21:58:45.775Z,11.60
2019-02-15T22:06:11.396Z,11.50
2019-02-15T22:09:30.306Z,11.50
2019-02-15T22:12:35.024Z,11.40
2019-02-15T22:19:25.893Z,11.30
2019-02-15T22:34:00.028Z,11.10
2019-02-15T22:37:38.766Z,11.10
2019-02-15T22:49:13.070Z,11.00
2019-02-15T22:52:20.214Z,10.90
2019-02-15T22:55:30.736Z,10.90
2019-02-15T22:58:30.185Z,10.90
2019-02-15T23:01:44.824Z,10.90
2019-02-15T23:08:47.004Z,10.70
2019-02-15T23:19:59.355Z,10.70
2019-02-15T23:24:04.731Z,10.70
2019-02-15T23:33:33.910Z,10.60
2019-02-15T23:36:53.786Z,10.50
2019-02-15T23:44:08.023Z,10.50
2019-02-15T23:47:24.536Z,10.50
